Lehmann Sound — V2EM3 — position and weather

sailwx.info

Track history (hours):
 
Tides and Currents Weather Stations Pressure Air Temp Water Temp Dewpoint Dewpoint Depression Visibility Wind Speed Wind Dir Waves Ship Positions

Lehmann Sound

Last reported at 2016-Jun-24 21:33 UTC. Time now 2016-Jun-24 22:21 UTC.
Position N 51°29' E 001°19'.

Length 90 m; draft 4.2 m.

Type: Cargo ship. MMSI: 305476000.

Date/timePositionNaut miles runAvg speedWind from/ knotsBaromVisibWave heightAir tempDewpointWater temp
2016-Jun-24 21:33N 51°29' E 001°19'8 7.7
2016-Jun-24 20:33N 51°29' E 001°32'8 7.7
2016-Jun-24 19:33N 51°30' E 001°44'7 6.6
2016-Jun-24 18:33N 51°32' E 001°54'6 6.4
2016-Jun-24 17:33N 51°37' E 002°01'6 5.9
2016-Jun-24 16:33N 51°41' E 002°08'6 6.3
2016-Jun-24 15:33N 51°45' E 002°16'7 7.1
2016-Jun-24 14:33N 51°50' E 002°24'12 8.3
2016-Jun-24 13:06N 51°58' E 002°39'610.1
2016-Jun-24 12:33N 52°02' E 002°45'10 9.3
2016-Jun-24 11:31N 52°09' E 002°55'39 8.9
2016-Jun-24 07:09N 52°40' E 003°33'25 7.0
2016-Jun-24 03:33N 52°59' E 004°01'11 8.5
2016-Jun-24 02:18N 53°06' E 004°14'7 9.2
2016-Jun-24 01:33N 53°10' E 004°23'11 9.1
2016-Jun-24 00:24N 53°20' E 004°31'7 8.8
2016-Jun-23 23:33N 53°27' E 004°36'8 8.1
2016-Jun-23 22:33N 53°30' E 004°48'7 7.0
2016-Jun-23 21:33N 53°33' E 004°60'7 6.7
2016-Jun-23 20:33N 53°35' E 005°10'7 6.7
2016-Jun-23 19:33N 53°37' E 005°21'8 7.7
2016-Jun-23 18:33N 53°40' E 005°33'9 8.7
2016-Jun-23 17:33N 53°42' E 005°47'9 9.4
2016-Jun-23 16:33N 53°46' E 006°02'9 9.4
2016-Jun-23 15:33N 53°48' E 006°17'5 5.4
2016-Jun-23 14:33N 53°43' E 006°21'7 7.0
2016-Jun-23 13:33N 53°37' E 006°17'1 1.2
2016-Jun-23 12:32N 53°36' E 006°16'0 0.0
2016-Jun-23 11:32N 53°36' E 006°16'0 0.0
2016-Jun-23 10:31N 53°36' E 006°16'0 0.0
2016-Jun-23 09:31N 53°36' E 006°16'0 0.0
2016-Jun-23 08:31N 53°36' E 006°16'0 0.0
2016-Jun-23 07:31N 53°36' E 006°16'0 0.1
2016-Jun-23 05:31N 53°36' E 006°16'0 0.0
2016-Jun-23 04:31N 53°36' E 006°16'0 0.0
2016-Jun-23 03:25N 53°36' E 006°16'0 0.0
2016-Jun-23 02:31N 53°36' E 006°16'0 0.0
2016-Jun-23 01:19N 53°36' E 006°16'0 0.0
2016-Jun-23 00:31N 53°36' E 006°16'0 0.1
2016-Jun-22 23:28N 53°36' E 006°16'0 0.1
2016-Jun-22 22:31N 53°36' E 006°16'0 0.0
2016-Jun-22 21:31N 53°36' E 006°16'0 0.0
2016-Jun-22 20:31N 53°36' E 006°16'0 0.0
2016-Jun-22 19:31N 53°36' E 006°16'0 0.0
2016-Jun-22 18:25N 53°36' E 006°16'0 0.1
2016-Jun-22 17:31N 53°36' E 006°16'0 0.0
2016-Jun-22 16:22N 53°36' E 006°16'0 0.0
2016-Jun-22 15:31N 53°36' E 006°16'0 0.0
2016-Jun-22 14:31N 53°36' E 006°16'0 0.0
2016-Jun-22 13:31N 53°36' E 006°16'0 0.1
2016-Jun-22 12:31N 53°36' E 006°16'0 0.1
2016-Jun-22 11:31N 53°36' E 006°16'0 0.0
2016-Jun-22 10:28N 53°36' E 006°16'0 0.0
2016-Jun-22 09:25N 53°36' E 006°16'0 0.0
2016-Jun-22 08:31N 53°36' E 006°16'0 0.0
2016-Jun-22 07:31N 53°36' E 006°16'0 0.0
2016-Jun-22 06:28N 53°36' E 006°16'0 0.0
2016-Jun-22 05:31N 53°36' E 006°16'0 0.1
2016-Jun-22 04:31N 53°36' E 006°16'0 0.1
2016-Jun-22 03:31N 53°36' E 006°16'0 0.0
2016-Jun-22 02:34N 53°36' E 006°16'0 0.0
2016-Jun-22 01:28N 53°36' E 006°16'0 0.1
2016-Jun-22 00:30N 53°36' E 006°16'0 0.0
2016-Jun-21 23:33N 53°36' E 006°16'0 0.0
2016-Jun-21 22:31N 53°36' E 006°16'0 0.0
2016-Jun-21 21:33N 53°36' E 006°16'0 0.0
2016-Jun-21 20:33N 53°36' E 006°16'0 0.0
2016-Jun-21 19:33N 53°36' E 006°16'0 0.0
2016-Jun-21 18:33N 53°36' E 006°16'0 0.1
2016-Jun-21 17:30N 53°35' E 006°16'0 0.0
2016-Jun-21 16:27N 53°36' E 006°16'0 0.0
2016-Jun-21 15:30N 53°36' E 006°16'0 0.0
2016-Jun-21 14:33N 53°36' E 006°16'0 0.0
2016-Jun-21 13:33N 53°36' E 006°16'0 0.0
2016-Jun-21 12:33N 53°36' E 006°16'0 0.0
2016-Jun-21 11:33N 53°36' E 006°16'0 0.1
2016-Jun-21 10:33N 53°36' E 006°16'0 0.0
2016-Jun-21 09:33N 53°36' E 006°16'0 0.0
2016-Jun-21 08:33N 53°36' E 006°16'0 0.0
2016-Jun-21 07:33N 53°36' E 006°16'0 0.0
2016-Jun-21 06:33N 53°36' E 006°16'0 0.0
2016-Jun-21 04:30N 53°36' E 006°16'0 0.1
2016-Jun-21 03:33N 53°36' E 006°16'0 0.0
2016-Jun-21 02:33N 53°36' E 006°16'0 0.0
2016-Jun-21 01:27N 53°36' E 006°16'0 0.0
2016-Jun-21 00:33N 53°36' E 006°16'0 0.1
2016-Jun-20 23:33N 53°36' E 006°16'0 0.0
2016-Jun-20 22:33N 53°36' E 006°16'0 0.0
2016-Jun-20 21:33N 53°36' E 006°16'0 0.0
2016-Jun-20 20:33N 53°36' E 006°16'0 0.0
2016-Jun-20 19:33N 53°36' E 006°16'0 0.0
2016-Jun-20 18:33N 53°36' E 006°16'0 0.0
2016-Jun-20 17:27N 53°36' E 006°16'0 0.0
2016-Jun-20 16:33N 53°36' E 006°16'0 0.0
2016-Jun-20 15:33N 53°36' E 006°16'0 0.0
2016-Jun-20 14:30N 53°36' E 006°16'0 0.0
2016-Jun-20 13:27N 53°36' E 006°16'0 0.0
2016-Jun-20 12:32N 53°36' E 006°16'0 0.0
2016-Jun-20 11:32N 53°36' E 006°16'0 0.0
2016-Jun-20 10:32N 53°36' E 006°16'0 0.0
2016-Jun-20 09:33N 53°36' E 006°16'0 0.0
2016-Jun-20 08:32N 53°36' E 006°16'0 0.0
2016-Jun-20 07:32N 53°36' E 006°16'0 0.0
2016-Jun-20 06:32N 53°36' E 006°16'0 0.0
2016-Jun-20 05:32N 53°36' E 006°16'0 0.1
2016-Jun-20 04:23N 53°36' E 006°16'0 0.0
2016-Jun-20 03:26N 53°36' E 006°16'0 0.0
2016-Jun-20 02:29N 53°36' E 006°16'0 0.0
2016-Jun-20 01:32N 53°36' E 006°16'0 0.0
2016-Jun-20 00:33N 53°36' E 006°16'0 0.0
2016-Jun-19 23:32N 53°36' E 006°16'0 0.0
2016-Jun-19 22:30N 53°36' E 006°16'0 0.1
2016-Jun-19 21:32N 53°36' E 006°16'0 0.1
2016-Jun-19 20:32N 53°36' E 006°16'0 0.0
2016-Jun-19 19:32N 53°36' E 006°16'0 0.0
2016-Jun-19 18:29N 53°36' E 006°16'0 0.0
2016-Jun-19 17:32N 53°36' E 006°16'0 0.1
2016-Jun-19 16:32N 53°35' E 006°16'0 0.1
2016-Jun-19 15:29N 53°35' E 006°16'0 0.1
2016-Jun-19 14:29N 53°35' E 006°16'0 0.0
2016-Jun-19 13:23N 53°35' E 006°16'0 0.0
2016-Jun-19 12:32N 53°36' E 006°16'0 0.0
2016-Jun-19 11:32N 53°35' E 006°16'0 0.1
2016-Jun-19 10:32N 53°35' E 006°16'0 0.0
2016-Jun-19 09:29N 53°35' E 006°16'0 0.0
2016-Jun-19 08:32N 53°35' E 006°16'0 0.0
2016-Jun-19 07:32N 53°35' E 006°16'0 0.0
2016-Jun-19 06:32N 53°35' E 006°16'0 0.0
2016-Jun-19 05:32N 53°35' E 006°16'0 0.0
2016-Jun-19 04:32N 53°35' E 006°16'0 0.0
2016-Jun-19 03:32N 53°35' E 006°16'0 0.0
2016-Jun-19 02:31N 53°35' E 006°16'0 0.0
2016-Jun-19 01:31N 53°35' E 006°16'0 0.0
2016-Jun-19 00:32N 53°35' E 006°16'0 0.0
2016-Jun-18 23:31N 53°35' E 006°16'0 0.0
2016-Jun-18 22:32N 53°35' E 006°16'0 0.0
2016-Jun-18 21:31N 53°35' E 006°16'0 0.0
2016-Jun-18 20:31N 53°35' E 006°16'0 0.0
2016-Jun-18 19:31N 53°35' E 006°16'0 0.0
2016-Jun-18 18:31N 53°35' E 006°16'0 0.0
2016-Jun-18 17:28N 53°36' E 006°16'0 0.0
2016-Jun-18 16:31N 53°36' E 006°16'0 0.0
2016-Jun-18 15:31N 53°35' E 006°16'0 0.0
2016-Jun-18 14:31N 53°35' E 006°16'0 0.1
2016-Jun-18 13:31N 53°35' E 006°16'0 0.0
2016-Jun-18 12:29N 53°36' E 006°16'0 0.0
2016-Jun-18 11:31N 53°36' E 006°16'0 0.1
2016-Jun-18 10:28N 53°36' E 006°16'0 0.0
2016-Jun-18 09:31N 53°36' E 006°16'0 0.0
2016-Jun-18 08:31N 53°36' E 006°16'0 0.0
2016-Jun-18 07:31N 53°36' E 006°16'0 0.0
2016-Jun-18 06:25N 53°36' E 006°16'0 0.0
2016-Jun-18 05:31N 53°36' E 006°16'0 0.0
2016-Jun-18 04:28N 53°36' E 006°16'0 0.0
2016-Jun-18 03:28N 53°36' E 006°16'0 0.0
2016-Jun-18 02:22N 53°36' E 006°16'3 3.4
2016-Jun-18 01:33N 53°37' E 006°20'9 8.8
2016-Jun-18 00:33N 53°36' E 006°35'1010.4
2016-Jun-17 23:33N 53°30' E 006°48'2 2.3
2016-Jun-17 22:29N 53°27' E 006°49'0 0.0
2016-Jun-17 21:33N 53°27' E 006°49'0 0.0
2016-Jun-17 20:29N 53°27' E 006°49'0 0.0
2016-Jun-17 19:32N 53°27' E 006°49'0 0.0
2016-Jun-17 18:32N 53°27' E 006°49'0 0.0
2016-Jun-17 17:32N 53°27' E 006°49'0 0.0
2016-Jun-17 16:32N 53°27' E 006°49'0 0.0
2016-Jun-17 15:29N 53°27' E 006°49'0 0.0
2016-Jun-17 14:32N 53°27' E 006°49'0 0.0
2016-Jun-17 13:32N 53°27' E 006°49'0 0.0
2016-Jun-17 12:32N 53°27' E 006°49'0 0.0
2016-Jun-17 11:33N 53°27' E 006°49'0 0.0
2016-Jun-17 10:32N 53°27' E 006°49'0 0.0
2016-Jun-17 09:32N 53°27' E 006°49'0 0.0
2016-Jun-17 08:32N 53°27' E 006°49'0 0.0
2016-Jun-17 07:32N 53°27' E 006°49'0 0.0
2016-Jun-17 06:33N 53°27' E 006°49'0 0.0
2016-Jun-17 05:26N 53°27' E 006°49'0 0.0
2016-Jun-17 04:32N 53°27' E 006°49'0 0.0
2016-Jun-17 03:32N 53°27' E 006°49'0 0.0
2016-Jun-17 02:32N 53°27' E 006°49'0 0.0
2016-Jun-17 01:32N 53°27' E 006°49'0 0.0
2016-Jun-17 00:32N 53°27' E 006°49'0 0.0
2016-Jun-16 23:31N 53°27' E 006°49'0 0.0
2016-Jun-16 22:32N 53°27' E 006°49'0 0.0
2016-Jun-16 21:33N 53°27' E 006°49'0 0.1
2016-Jun-16 20:31N 53°27' E 006°49'0 0.0
2016-Jun-16 19:31N 53°27' E 006°49'0 0.0
2016-Jun-16 18:31N 53°27' E 006°49'0 0.0
2016-Jun-16 17:31N 53°27' E 006°49'0 0.0
2016-Jun-16 16:31N 53°27' E 006°49'0 0.0
2016-Jun-16 15:31N 53°27' E 006°49'0 0.0
2016-Jun-16 14:31N 53°27' E 006°49'0 0.0
2016-Jun-16 13:31N 53°27' E 006°49'0 0.0
2016-Jun-16 12:31N 53°27' E 006°49'0 0.0
2016-Jun-16 11:31N 53°27' E 006°49'0 0.0
2016-Jun-16 10:33N 53°27' E 006°49'0 0.0
2016-Jun-16 09:34N 53°27' E 006°49'0 0.0
2016-Jun-16 08:31N 53°27' E 006°49'0 0.0
2016-Jun-16 07:34N 53°27' E 006°49'0 0.0
2016-Jun-16 06:33N 53°27' E 006°49'0 0.0
2016-Jun-16 05:33N 53°27' E 006°49'0 0.0
2016-Jun-16 04:33N 53°27' E 006°49'0 0.0
2016-Jun-16 03:33N 53°27' E 006°49'0 0.0
2016-Jun-16 02:33N 53°27' E 006°49'0 0.0
2016-Jun-16 01:33N 53°27' E 006°49'0 0.0
2016-Jun-16 00:33N 53°27' E 006°49'0 0.0
2016-Jun-15 23:33N 53°27' E 006°49'0 0.0
2016-Jun-15 22:30N 53°27' E 006°49'0 0.0
2016-Jun-15 21:33N 53°27' E 006°49'0 0.0
2016-Jun-15 20:33N 53°27' E 006°49'0 0.0
2016-Jun-15 19:33N 53°27' E 006°49'0 0.0
2016-Jun-15 18:33N 53°27' E 006°49'0 0.0
2016-Jun-15 17:33N 53°27' E 006°49'0 0.0
2016-Jun-15 16:33N 53°27' E 006°49'0 0.0
2016-Jun-15 15:33N 53°27' E 006°49'0 0.0
2016-Jun-15 14:33N 53°27' E 006°49'0 0.0
2016-Jun-15 13:33N 53°27' E 006°49'0 0.0
2016-Jun-15 12:33N 53°27' E 006°49'0 0.0
2016-Jun-15 11:33N 53°27' E 006°49'0 0.0
2016-Jun-15 10:33N 53°27' E 006°49'0 0.0
2016-Jun-15 09:33N 53°27' E 006°49'0 0.0
2016-Jun-15 08:33N 53°27' E 006°49'0 0.0
2016-Jun-15 07:33N 53°27' E 006°49'0 0.0
2016-Jun-15 06:33N 53°27' E 006°49'0 0.0
2016-Jun-15 05:33N 53°27' E 006°49'0 0.0
2016-Jun-15 04:33N 53°27' E 006°49'0 0.0
2016-Jun-15 03:33N 53°27' E 006°49'0 0.5
2016-Jun-15 02:32N 53°27' E 006°50'0 0.0
2016-Jun-15 01:32N 53°27' E 006°50'0 0.0
2016-Jun-15 00:29N 53°27' E 006°50'0 0.0
2016-Jun-14 23:32N 53°27' E 006°50'0 0.0
2016-Jun-14 22:29N 53°27' E 006°50'  
Track history (hours):
 
Tides and Currents Weather Stations Pressure Air Temp Water Temp Dewpoint Dewpoint Depression Visibility Wind Speed Wind Dir Waves Ship Positions

Lehmann Sound

Last reported at 2016-Jun-24 21:33 UTC. Time now 2016-Jun-24 22:21 UTC.
Position N 51°29' E 001°19'.

Length 90 m; draft 4.2 m.

Type: Cargo ship. MMSI: 305476000.

Date/timePositionNaut miles runAvg speedWind from/ knotsBaromVisibWave heightAir tempDewpointWater temp
2016-Jun-24 21:33N 51°29' E 001°19'8 7.7
2016-Jun-24 20:33N 51°29' E 001°32'8 7.7
2016-Jun-24 19:33N 51°30' E 001°44'7 6.6
2016-Jun-24 18:33N 51°32' E 001°54'6 6.4
2016-Jun-24 17:33N 51°37' E 002°01'6 5.9
2016-Jun-24 16:33N 51°41' E 002°08'6 6.3
2016-Jun-24 15:33N 51°45' E 002°16'7 7.1
2016-Jun-24 14:33N 51°50' E 002°24'12 8.3
2016-Jun-24 13:06N 51°58' E 002°39'610.1
2016-Jun-24 12:33N 52°02' E 002°45'10 9.3
2016-Jun-24 11:31N 52°09' E 002°55'39 8.9
2016-Jun-24 07:09N 52°40' E 003°33'25 7.0
2016-Jun-24 03:33N 52°59' E 004°01'11 8.5
2016-Jun-24 02:18N 53°06' E 004°14'7 9.2
2016-Jun-24 01:33N 53°10' E 004°23'11 9.1
2016-Jun-24 00:24N 53°20' E 004°31'7 8.8
2016-Jun-23 23:33N 53°27' E 004°36'8 8.1
2016-Jun-23 22:33N 53°30' E 004°48'7 7.0
2016-Jun-23 21:33N 53°33' E 004°60'7 6.7
2016-Jun-23 20:33N 53°35' E 005°10'7 6.7
2016-Jun-23 19:33N 53°37' E 005°21'8 7.7
2016-Jun-23 18:33N 53°40' E 005°33'9 8.7
2016-Jun-23 17:33N 53°42' E 005°47'9 9.4
2016-Jun-23 16:33N 53°46' E 006°02'9 9.4
2016-Jun-23 15:33N 53°48' E 006°17'5 5.4
2016-Jun-23 14:33N 53°43' E 006°21'7 7.0
2016-Jun-23 13:33N 53°37' E 006°17'1 1.2
2016-Jun-23 12:32N 53°36' E 006°16'0 0.0
2016-Jun-23 11:32N 53°36' E 006°16'0 0.0
2016-Jun-23 10:31N 53°36' E 006°16'0 0.0
2016-Jun-23 09:31N 53°36' E 006°16'0 0.0
2016-Jun-23 08:31N 53°36' E 006°16'0 0.0
2016-Jun-23 07:31N 53°36' E 006°16'0 0.1
2016-Jun-23 05:31N 53°36' E 006°16'0 0.0
2016-Jun-23 04:31N 53°36' E 006°16'0 0.0
2016-Jun-23 03:25N 53°36' E 006°16'0 0.0
2016-Jun-23 02:31N 53°36' E 006°16'0 0.0
2016-Jun-23 01:19N 53°36' E 006°16'0 0.0
2016-Jun-23 00:31N 53°36' E 006°16'0 0.1
2016-Jun-22 23:28N 53°36' E 006°16'0 0.1
2016-Jun-22 22:31N 53°36' E 006°16'0 0.0
2016-Jun-22 21:31N 53°36' E 006°16'0 0.0
2016-Jun-22 20:31N 53°36' E 006°16'0 0.0
2016-Jun-22 19:31N 53°36' E 006°16'0 0.0
2016-Jun-22 18:25N 53°36' E 006°16'0 0.1
2016-Jun-22 17:31N 53°36' E 006°16'0 0.0
2016-Jun-22 16:22N 53°36' E 006°16'0 0.0
2016-Jun-22 15:31N 53°36' E 006°16'0 0.0
2016-Jun-22 14:31N 53°36' E 006°16'0 0.0
2016-Jun-22 13:31N 53°36' E 006°16'0 0.1
2016-Jun-22 12:31N 53°36' E 006°16'0 0.1
2016-Jun-22 11:31N 53°36' E 006°16'0 0.0
2016-Jun-22 10:28N 53°36' E 006°16'0 0.0
2016-Jun-22 09:25N 53°36' E 006°16'0 0.0
2016-Jun-22 08:31N 53°36' E 006°16'0 0.0
2016-Jun-22 07:31N 53°36' E 006°16'0 0.0
2016-Jun-22 06:28N 53°36' E 006°16'0 0.0
2016-Jun-22 05:31N 53°36' E 006°16'0 0.1
2016-Jun-22 04:31N 53°36' E 006°16'0 0.1
2016-Jun-22 03:31N 53°36' E 006°16'0 0.0
2016-Jun-22 02:34N 53°36' E 006°16'0 0.0
2016-Jun-22 01:28N 53°36' E 006°16'0 0.1
2016-Jun-22 00:30N 53°36' E 006°16'0 0.0
2016-Jun-21 23:33N 53°36' E 006°16'0 0.0
2016-Jun-21 22:31N 53°36' E 006°16'0 0.0
2016-Jun-21 21:33N 53°36' E 006°16'0 0.0
2016-Jun-21 20:33N 53°36' E 006°16'0 0.0
2016-Jun-21 19:33N 53°36' E 006°16'0 0.0
2016-Jun-21 18:33N 53°36' E 006°16'0 0.1
2016-Jun-21 17:30N 53°35' E 006°16'0 0.0
2016-Jun-21 16:27N 53°36' E 006°16'0 0.0
2016-Jun-21 15:30N 53°36' E 006°16'0 0.0
2016-Jun-21 14:33N 53°36' E 006°16'0 0.0
2016-Jun-21 13:33N 53°36' E 006°16'0 0.0
2016-Jun-21 12:33N 53°36' E 006°16'0 0.0
2016-Jun-21 11:33N 53°36' E 006°16'0 0.1
2016-Jun-21 10:33N 53°36' E 006°16'0 0.0
2016-Jun-21 09:33N 53°36' E 006°16'0 0.0
2016-Jun-21 08:33N 53°36' E 006°16'0 0.0
2016-Jun-21 07:33N 53°36' E 006°16'0 0.0
2016-Jun-21 06:33N 53°36' E 006°16'0 0.0
2016-Jun-21 04:30N 53°36' E 006°16'0 0.1
2016-Jun-21 03:33N 53°36' E 006°16'0 0.0
2016-Jun-21 02:33N 53°36' E 006°16'0 0.0
2016-Jun-21 01:27N 53°36' E 006°16'0 0.0
2016-Jun-21 00:33N 53°36' E 006°16'0 0.1
2016-Jun-20 23:33N 53°36' E 006°16'0 0.0
2016-Jun-20 22:33N 53°36' E 006°16'0 0.0
2016-Jun-20 21:33N 53°36' E 006°16'0 0.0
2016-Jun-20 20:33N 53°36' E 006°16'0 0.0
2016-Jun-20 19:33N 53°36' E 006°16'0 0.0
2016-Jun-20 18:33N 53°36' E 006°16'0 0.0
2016-Jun-20 17:27N 53°36' E 006°16'0 0.0
2016-Jun-20 16:33N 53°36' E 006°16'0 0.0
2016-Jun-20 15:33N 53°36' E 006°16'0 0.0
2016-Jun-20 14:30N 53°36' E 006°16'0 0.0
2016-Jun-20 13:27N 53°36' E 006°16'0 0.0
2016-Jun-20 12:32N 53°36' E 006°16'0 0.0
2016-Jun-20 11:32N 53°36' E 006°16'0 0.0
2016-Jun-20 10:32N 53°36' E 006°16'0 0.0
2016-Jun-20 09:33N 53°36' E 006°16'0 0.0
2016-Jun-20 08:32N 53°36' E 006°16'0 0.0
2016-Jun-20 07:32N 53°36' E 006°16'0 0.0
2016-Jun-20 06:32N 53°36' E 006°16'0 0.0
2016-Jun-20 05:32N 53°36' E 006°16'0 0.1
2016-Jun-20 04:23N 53°36' E 006°16'0 0.0
2016-Jun-20 03:26N 53°36' E 006°16'0 0.0
2016-Jun-20 02:29N 53°36' E 006°16'0 0.0
2016-Jun-20 01:32N 53°36' E 006°16'0 0.0
2016-Jun-20 00:33N 53°36' E 006°16'0 0.0
2016-Jun-19 23:32N 53°36' E 006°16'0 0.0
2016-Jun-19 22:30N 53°36' E 006°16'0 0.1
2016-Jun-19 21:32N 53°36' E 006°16'0 0.1
2016-Jun-19 20:32N 53°36' E 006°16'0 0.0
2016-Jun-19 19:32N 53°36' E 006°16'0 0.0
2016-Jun-19 18:29N 53°36' E 006°16'0 0.0
2016-Jun-19 17:32N 53°36' E 006°16'0 0.1
2016-Jun-19 16:32N 53°35' E 006°16'0 0.1
2016-Jun-19 15:29N 53°35' E 006°16'0 0.1
2016-Jun-19 14:29N 53°35' E 006°16'0 0.0
2016-Jun-19 13:23N 53°35' E 006°16'0 0.0
2016-Jun-19 12:32N 53°36' E 006°16'0 0.0
2016-Jun-19 11:32N 53°35' E 006°16'0 0.1
2016-Jun-19 10:32N 53°35' E 006°16'0 0.0
2016-Jun-19 09:29N 53°35' E 006°16'0 0.0
2016-Jun-19 08:32N 53°35' E 006°16'0 0.0
2016-Jun-19 07:32N 53°35' E 006°16'0 0.0
2016-Jun-19 06:32N 53°35' E 006°16'0 0.0
2016-Jun-19 05:32N 53°35' E 006°16'0 0.0
2016-Jun-19 04:32N 53°35' E 006°16'0 0.0
2016-Jun-19 03:32N 53°35' E 006°16'0 0.0
2016-Jun-19 02:31N 53°35' E 006°16'0 0.0
2016-Jun-19 01:31N 53°35' E 006°16'0 0.0
2016-Jun-19 00:32N 53°35' E 006°16'0 0.0
2016-Jun-18 23:31N 53°35' E 006°16'0 0.0
2016-Jun-18 22:32N 53°35' E 006°16'0 0.0
2016-Jun-18 21:31N 53°35' E 006°16'0 0.0
2016-Jun-18 20:31N 53°35' E 006°16'0 0.0
2016-Jun-18 19:31N 53°35' E 006°16'0 0.0
2016-Jun-18 18:31N 53°35' E 006°16'0 0.0
2016-Jun-18 17:28N 53°36' E 006°16'0 0.0
2016-Jun-18 16:31N 53°36' E 006°16'0 0.0
2016-Jun-18 15:31N 53°35' E 006°16'0 0.0
2016-Jun-18 14:31N 53°35' E 006°16'0 0.1
2016-Jun-18 13:31N 53°35' E 006°16'0 0.0
2016-Jun-18 12:29N 53°36' E 006°16'0 0.0
2016-Jun-18 11:31N 53°36' E 006°16'0 0.1
2016-Jun-18 10:28N 53°36' E 006°16'0 0.0
2016-Jun-18 09:31N 53°36' E 006°16'0 0.0
2016-Jun-18 08:31N 53°36' E 006°16'0 0.0
2016-Jun-18 07:31N 53°36' E 006°16'0 0.0
2016-Jun-18 06:25N 53°36' E 006°16'0 0.0
2016-Jun-18 05:31N 53°36' E 006°16'0 0.0
2016-Jun-18 04:28N 53°36' E 006°16'0 0.0
2016-Jun-18 03:28N 53°36' E 006°16'0 0.0
2016-Jun-18 02:22N 53°36' E 006°16'3 3.4
2016-Jun-18 01:33N 53°37' E 006°20'9 8.8
2016-Jun-18 00:33N 53°36' E 006°35'1010.4
2016-Jun-17 23:33N 53°30' E 006°48'2 2.3
2016-Jun-17 22:29N 53°27' E 006°49'0 0.0
2016-Jun-17 21:33N 53°27' E 006°49'0 0.0
2016-Jun-17 20:29N 53°27' E 006°49'0 0.0
2016-Jun-17 19:32N 53°27' E 006°49'0 0.0
2016-Jun-17 18:32N 53°27' E 006°49'0 0.0
2016-Jun-17 17:32N 53°27' E 006°49'0 0.0
2016-Jun-17 16:32N 53°27' E 006°49'0 0.0
2016-Jun-17 15:29N 53°27' E 006°49'0 0.0
2016-Jun-17 14:32N 53°27' E 006°49'0 0.0
2016-Jun-17 13:32N 53°27' E 006°49'0 0.0
2016-Jun-17 12:32N 53°27' E 006°49'0 0.0
2016-Jun-17 11:33N 53°27' E 006°49'0 0.0
2016-Jun-17 10:32N 53°27' E 006°49'0 0.0
2016-Jun-17 09:32N 53°27' E 006°49'0 0.0
2016-Jun-17 08:32N 53°27' E 006°49'0 0.0
2016-Jun-17 07:32N 53°27' E 006°49'0 0.0
2016-Jun-17 06:33N 53°27' E 006°49'0 0.0
2016-Jun-17 05:26N 53°27' E 006°49'0 0.0
2016-Jun-17 04:32N 53°27' E 006°49'0 0.0
2016-Jun-17 03:32N 53°27' E 006°49'0 0.0
2016-Jun-17 02:32N 53°27' E 006°49'0 0.0
2016-Jun-17 01:32N 53°27' E 006°49'0 0.0
2016-Jun-17 00:32N 53°27' E 006°49'0 0.0
2016-Jun-16 23:31N 53°27' E 006°49'0 0.0
2016-Jun-16 22:32N 53°27' E 006°49'0 0.0
2016-Jun-16 21:33N 53°27' E 006°49'0 0.1
2016-Jun-16 20:31N 53°27' E 006°49'0 0.0
2016-Jun-16 19:31N 53°27' E 006°49'0 0.0
2016-Jun-16 18:31N 53°27' E 006°49'0 0.0
2016-Jun-16 17:31N 53°27' E 006°49'0 0.0
2016-Jun-16 16:31N 53°27' E 006°49'0 0.0
2016-Jun-16 15:31N 53°27' E 006°49'0 0.0
2016-Jun-16 14:31N 53°27' E 006°49'0 0.0
2016-Jun-16 13:31N 53°27' E 006°49'0 0.0
2016-Jun-16 12:31N 53°27' E 006°49'0 0.0
2016-Jun-16 11:31N 53°27' E 006°49'0 0.0
2016-Jun-16 10:33N 53°27' E 006°49'0 0.0
2016-Jun-16 09:34N 53°27' E 006°49'0 0.0
2016-Jun-16 08:31N 53°27' E 006°49'0 0.0
2016-Jun-16 07:34N 53°27' E 006°49'0 0.0
2016-Jun-16 06:33N 53°27' E 006°49'0 0.0
2016-Jun-16 05:33N 53°27' E 006°49'0 0.0
2016-Jun-16 04:33N 53°27' E 006°49'0 0.0
2016-Jun-16 03:33N 53°27' E 006°49'0 0.0
2016-Jun-16 02:33N 53°27' E 006°49'0 0.0
2016-Jun-16 01:33N 53°27' E 006°49'0 0.0
2016-Jun-16 00:33N 53°27' E 006°49'0 0.0
2016-Jun-15 23:33N 53°27' E 006°49'0 0.0
2016-Jun-15 22:30N 53°27' E 006°49'0 0.0
2016-Jun-15 21:33N 53°27' E 006°49'0 0.0
2016-Jun-15 20:33N 53°27' E 006°49'0 0.0
2016-Jun-15 19:33N 53°27' E 006°49'0 0.0
2016-Jun-15 18:33N 53°27' E 006°49'0 0.0
2016-Jun-15 17:33N 53°27' E 006°49'0 0.0
2016-Jun-15 16:33N 53°27' E 006°49'0 0.0
2016-Jun-15 15:33N 53°27' E 006°49'0 0.0
2016-Jun-15 14:33N 53°27' E 006°49'0 0.0
2016-Jun-15 13:33N 53°27' E 006°49'0 0.0
2016-Jun-15 12:33N 53°27' E 006°49'0 0.0
2016-Jun-15 11:33N 53°27' E 006°49'0 0.0
2016-Jun-15 10:33N 53°27' E 006°49'0 0.0
2016-Jun-15 09:33N 53°27' E 006°49'0 0.0
2016-Jun-15 08:33N 53°27' E 006°49'0 0.0
2016-Jun-15 07:33N 53°27' E 006°49'0 0.0
2016-Jun-15 06:33N 53°27' E 006°49'0 0.0
2016-Jun-15 05:33N 53°27' E 006°49'0 0.0
2016-Jun-15 04:33N 53°27' E 006°49'0 0.0
2016-Jun-15 03:33N 53°27' E 006°49'0 0.5
2016-Jun-15 02:32N 53°27' E 006°50'0 0.0
2016-Jun-15 01:32N 53°27' E 006°50'0 0.0
2016-Jun-15 00:29N 53°27' E 006°50'0 0.0
2016-Jun-14 23:32N 53°27' E 006°50'0 0.0
2016-Jun-14 22:29N 53°27' E 006°50'  

Dump ship's entire track history